createdAt,value
2023-09-02T00:00:11.805Z,101812.81
2023-09-02T00:02:38.277Z,101811.09
2023-09-02T00:05:05.016Z,101823.78
2023-09-02T00:07:31.669Z,101806.34
2023-09-02T00:09:58.147Z,101802.03
2023-09-02T00:12:24.734Z,101805.09
2023-09-02T00:14:51.266Z,101805.50
2023-09-02T00:17:17.836Z,101805.88
2023-09-02T00:19:44.563Z,101802.53
2023-09-02T00:22:11.035Z,101804.63
2023-09-02T00:24:37.494Z,101797.91
2023-09-02T00:27:04.114Z,101799.13
2023-09-02T00:29:30.502Z,101795.94
2023-09-02T00:31:57.067Z,101791.75
2023-09-02T00:34:23.945Z,101793.69
2023-09-02T00:36:50.572Z,101800.22
2023-09-02T00:39:17.992Z,101795.19
2023-09-02T00:41:49.089Z,101798.06
2023-09-02T00:44:15.788Z,101791.34
2023-09-02T00:46:42.356Z,101793.44
2023-09-02T00:49:09.010Z,101794.41
2023-09-02T00:51:35.445Z,101799.25
2023-09-02T00:54:02.116Z,101797.56
2023-09-02T00:56:30.087Z,101804.47
2023-09-02T00:58:59.247Z,101796.66
2023-09-02T01:01:27.230Z,101795.13
2023-09-02T01:03:54.146Z,101798.03
2023-09-02T01:06:22.357Z,101795.50
2023-09-02T01:08:49.071Z,101796.59
2023-09-02T01:11:15.624Z,101796.00
2023-09-02T01:13:42.152Z,101801.69
2023-09-02T01:16:08.574Z,101806.25
2023-09-02T01:18:36.905Z,101801.22
2023-09-02T01:21:26.149Z,101804.00
2023-09-02T01:24:22.772Z,101797.44
2023-09-02T01:26:58.212Z,101800.44
2023-09-02T01:29:29.365Z,101796.41
2023-09-02T01:31:56.407Z,101813.22
2023-09-02T01:34:25.493Z,101820.53
2023-09-02T01:36:54.208Z,101821.50
2023-09-02T01:39:21.884Z,101827.75
2023-09-02T01:41:51.255Z,101828.13
2023-09-02T01:44:18.559Z,101826.56
2023-09-02T01:46:46.906Z,101827.69
2023-09-02T01:49:13.536Z,101831.25
2023-09-02T01:51:41.476Z,101834.84
2023-09-02T01:54:08.683Z,101837.50
2023-09-02T01:56:36.519Z,101841.09
2023-09-02T01:59:03.061Z,101841.25
2023-09-02T02:01:29.648Z,101854.66
2023-09-02T02:04:06.648Z,101854.56
2023-09-02T02:06:36.407Z,101855.50
2023-09-02T02:09:06.596Z,101855.50
2023-09-02T02:11:38.069Z,101858.03
2023-09-02T02:14:06.149Z,101855.41
2023-09-02T02:16:33.461Z,101857.06
2023-09-02T02:19:00.614Z,101858.88
2023-09-02T02:21:28.033Z,101858.16
2023-09-02T02:23:54.493Z,101858.88
2023-09-02T02:26:21.631Z,101855.13
2023-09-02T02:28:48.777Z,101855.97
2023-09-02T02:31:15.297Z,101863.91
2023-09-02T02:33:41.788Z,101862.00
2023-09-02T02:36:10.589Z,101860.06
2023-09-02T02:38:37.865Z,101860.06
2023-09-02T02:41:04.456Z,101857.41
2023-09-02T02:43:31.288Z,101858.25
2023-09-02T02:45:57.910Z,101859.78
2023-09-02T02:48:28.599Z,101858.81
2023-09-02T02:50:55.950Z,101859.66
2023-09-02T02:53:22.940Z,101860.41
2023-09-02T02:55:49.547Z,101861.25
2023-09-02T02:58:18.781Z,101860.00
2023-09-02T03:00:46.001Z,101861.72
2023-09-02T03:03:14.094Z,101858.19
2023-09-02T03:05:41.430Z,101856.28
2023-09-02T03:08:09.196Z,101858.94
2023-09-02T03:10:36.898Z,101861.44
2023-09-02T03:13:04.085Z,101859.38
2023-09-02T03:15:30.559Z,101859.50
2023-09-02T03:17:57.119Z,101858.66
2023-09-02T03:20:23.703Z,101862.88
2023-09-02T03:22:50.155Z,101861.78
2023-09-02T03:25:16.753Z,101867.78
2023-09-02T03:27:43.371Z,101865.97
2023-09-02T03:30:10.311Z,101861.41
2023-09-02T03:32:36.768Z,101862.25
2023-09-02T03:35:05.386Z,101865.72
2023-09-02T03:37:31.868Z,101861.00
2023-09-02T03:39:58.600Z,101864.34
2023-09-02T03:42:25.104Z,101861.84
2023-09-02T03:44:51.837Z,101866.16
2023-09-02T03:47:18.391Z,101863.53
2023-09-02T03:49:44.898Z,101871.34
2023-09-02T03:52:11.397Z,101878.44
2023-09-02T03:54:39.872Z,101873.97
2023-09-02T03:57:06.690Z,101881.78
2023-09-02T03:59:33.271Z,101886.09
2023-09-02T04:01:59.731Z,101889.69
2023-09-02T04:04:27.103Z,101882.63
2023-09-02T04:06:53.606Z,101886.09
2023-09-02T04:09:20.027Z,101885.50
2023-09-02T04:11:46.509Z,101875.88
2023-09-02T04:14:13.018Z,101879.28
2023-09-02T04:16:39.713Z,101889.09
2023-09-02T04:19:06.261Z,101882.84
2023-09-02T04:21:32.941Z,101885.38
2023-09-02T04:23:59.615Z,101877.56
2023-09-02T04:26:26.176Z,101891.75
2023-09-02T04:28:55.340Z,101898.81
2023-09-02T04:31:21.804Z,101902.31
2023-09-02T04:33:48.252Z,101905.91
2023-09-02T04:36:14.733Z,101909.41
2023-09-02T04:38:41.196Z,101914.94
2023-09-02T04:41:08.016Z,101917.44
2023-09-02T04:43:39.144Z,101913.72
2023-09-02T04:46:05.833Z,101923.44
2023-09-02T04:48:32.469Z,101924.03
2023-09-02T04:51:00.059Z,101924.75
2023-09-02T04:53:26.785Z,101938.56
2023-09-02T04:55:53.250Z,101931.59
2023-09-02T04:58:21.603Z,101940.22
2023-09-02T05:00:48.324Z,101931.47
2023-09-02T05:03:14.807Z,101937.31
2023-09-02T05:05:41.990Z,101940.81
2023-09-02T05:08:08.557Z,101940.81
2023-09-02T05:10:35.257Z,101940.81
2023-09-02T05:13:01.757Z,101946.91
2023-09-02T05:15:28.305Z,101941.06
2023-09-02T05:17:57.577Z,101943.72
2023-09-02T05:20:24.234Z,101949.97
2023-09-02T05:22:50.711Z,101951.50
2023-09-02T05:25:17.357Z,101954.84
2023-09-02T05:27:43.859Z,101959.91
2023-09-02T05:30:10.646Z,101962.41
2023-09-02T05:32:37.226Z,101970.34
2023-09-02T05:35:03.992Z,101968.41
2023-09-02T05:37:30.444Z,101964.09
2023-09-02T05:39:57.330Z,101974.41
2023-09-02T05:42:23.860Z,101973.44
2023-09-02T05:44:50.333Z,101975.25
2023-09-02T05:47:16.802Z,101976.78
2023-09-02T05:49:43.381Z,101974.84
2023-09-02T05:52:09.830Z,101983.25
2023-09-02T05:54:36.354Z,101982.41
2023-09-02T05:57:03.141Z,101972.69
2023-09-02T05:59:30.426Z,101981.31
2023-09-02T06:01:57.914Z,101976.63
2023-09-02T06:04:24.503Z,101980.94
2023-09-02T06:06:51.149Z,101975.41
2023-09-02T06:09:17.871Z,101977.09
2023-09-02T06:11:46.142Z,101972.66
2023-09-02T06:14:12.650Z,101976.00
2023-09-02T06:16:39.163Z,101974.19
2023-09-02T06:19:05.685Z,101973.13
2023-09-02T06:21:32.251Z,101977.06
2023-09-02T06:23:58.707Z,101982.69
2023-09-02T06:26:26.707Z,101991.72
2023-09-02T06:28:53.277Z,101995.34
2023-09-02T06:31:19.886Z,102005.06
2023-09-02T06:33:46.396Z,102003.84
2023-09-02T06:36:14.354Z,102009.97
2023-09-02T06:38:40.780Z,102013.44
2023-09-02T06:41:11.921Z,102018.34
2023-09-02T06:43:39.824Z,102037.34
2023-09-02T06:46:17.715Z,102038.03
2023-09-02T06:48:45.369Z,102045.00
2023-09-02T06:51:12.059Z,102049.31
2023-09-02T06:53:39.317Z,102056.19
2023-09-02T06:56:09.974Z,102061.06
2023-09-02T06:58:40.236Z,102058.06
2023-09-02T07:01:06.867Z,102064.03
2023-09-02T07:03:33.839Z,102056.81
2023-09-02T07:06:08.084Z,102061.50
2023-09-02T07:08:34.776Z,102068.19
2023-09-02T07:11:03.450Z,102073.34
2023-09-02T07:13:29.915Z,102076.00
2023-09-02T07:16:00.881Z,102072.38
2023-09-02T07:18:27.416Z,102080.91
2023-09-02T07:21:01.153Z,102074.50
2023-09-02T07:23:28.504Z,102079.56
2023-09-02T07:25:56.762Z,102092.53
2023-09-02T07:28:23.379Z,102091.69
2023-09-02T07:30:50.011Z,102105.25
2023-09-02T07:33:16.845Z,102102.66
2023-09-02T07:35:43.732Z,102103.56
2023-09-02T07:38:10.319Z,102106.06
2023-09-02T07:40:36.849Z,102119.19
2023-09-02T07:43:03.597Z,102118.59
2023-09-02T07:45:30.552Z,102112.91
2023-09-02T07:47:57.040Z,102111.44
2023-09-02T07:50:23.503Z,102115.25
2023-09-02T07:52:50.072Z,102128.09
2023-09-02T07:55:18.741Z,102127.13
2023-09-02T07:57:45.740Z,102119.63
2023-09-02T08:00:12.713Z,102128.88
2023-09-02T08:02:39.634Z,102139.19
2023-09-02T08:05:07.210Z,102143.66
2023-09-02T08:07:33.723Z,102149.41
2023-09-02T08:10:00.411Z,102145.91
2023-09-02T08:12:26.902Z,102143.44
2023-09-02T08:14:53.310Z,102146.25
2023-09-02T08:17:20.718Z,102150.06
2023-09-02T08:19:48.011Z,102152.88
2023-09-02T08:22:14.788Z,102155.44
2023-09-02T08:24:43.073Z,102145.38
2023-09-02T08:27:09.979Z,102150.66
2023-09-02T08:29:36.572Z,102151.91
2023-09-02T08:32:03.291Z,102154.16
2023-09-02T08:34:29.820Z,102155.31
2023-09-02T08:36:56.307Z,102158.78
2023-09-02T08:39:22.730Z,102157.41
2023-09-02T08:41:51.013Z,102152.13
2023-09-02T08:44:18.773Z,102157.03
2023-09-02T08:46:48.155Z,102154.63
2023-09-02T08:49:16.859Z,102147.25
2023-09-02T08:51:44.425Z,102145.28
2023-09-02T08:54:12.876Z,102146.53
2023-09-02T08:56:43.556Z,102136.66
2023-09-02T08:59:11.260Z,102142.25
2023-09-02T09:01:45.466Z,102151.72
2023-09-02T09:04:15.679Z,102165.44
2023-09-02T09:06:42.980Z,102170.91
2023-09-02T09:09:10.953Z,102169.09
2023-09-02T09:11:41.023Z,102183.34
2023-09-02T09:14:11.847Z,102186.16
2023-09-02T09:16:42.658Z,102183.66
2023-09-02T09:19:12.265Z,102188.84
2023-09-02T09:21:39.182Z,102188.69
2023-09-02T09:24:05.903Z,102196.66
2023-09-02T09:26:32.910Z,102191.22
2023-09-02T09:29:00.304Z,102191.78
2023-09-02T09:31:28.425Z,102193.16
2023-09-02T09:34:01.476Z,102202.00
2023-09-02T09:36:30.118Z,102207.31
2023-09-02T09:39:01.678Z,102208.53
2023-09-02T09:41:32.017Z,102221.41
2023-09-02T09:44:13.375Z,102221.00
2023-09-02T09:46:54.046Z,102228.25
2023-09-02T09:49:33.249Z,102229.94
2023-09-02T09:52:02.655Z,102236.22
2023-09-02T09:54:38.212Z,102248.25
2023-09-02T09:57:06.677Z,102245.47
2023-09-02T09:59:35.680Z,102248.25
2023-09-02T10:02:05.444Z,102252.72
2023-09-02T10:04:33.432Z,102254.97
2023-09-02T10:07:04.369Z,102258.16
2023-09-02T10:09:46.728Z,102266.13
2023-09-02T10:12:14.689Z,102258.16
2023-09-02T10:14:42.608Z,102259.16
2023-09-02T10:17:10.503Z,102266.56
2023-09-02T10:19:38.021Z,102265.72
2023-09-02T10:22:05.740Z,102270.91
2023-09-02T10:25:06.365Z,102272.84
2023-09-02T10:27:41.123Z,102277.63
2023-09-02T10:30:17.346Z,102273.59
2023-09-02T10:32:52.081Z,102289.25
2023-09-02T10:35:23.060Z,102284.50
2023-09-02T10:37:57.691Z,102286.03
2023-09-02T10:40:24.812Z,102284.91
2023-09-02T10:42:52.169Z,102284.59
2023-09-02T10:45:19.445Z,102278.59
2023-09-02T10:47:47.229Z,102278.84
2023-09-02T10:50:19.585Z,102280.94
2023-09-02T10:52:49.842Z,102297.03
2023-09-02T10:55:23.807Z,102292.94
2023-09-02T10:57:57.387Z,102292.53
2023-09-02T11:00:28.449Z,102285.38
2023-09-02T11:02:57.497Z,102284.94
2023-09-02T11:05:26.076Z,102283.97
2023-09-02T11:07:54.178Z,102281.72
2023-09-02T11:10:22.088Z,102284.47
2023-09-02T11:13:00.978Z,102280.94
2023-09-02T11:15:31.219Z,102270.09
2023-09-02T11:17:58.002Z,102285.91
2023-09-02T11:20:29.388Z,102278.63
2023-09-02T11:23:02.652Z,102288.00
2023-09-02T11:25:39.920Z,102283.50
2023-09-02T11:28:25.853Z,102284.44
2023-09-02T11:31:02.913Z,102280.03
2023-09-02T11:33:29.539Z,102286.00
2023-09-02T11:36:25.809Z,102287.91
2023-09-02T11:38:56.085Z,102295.59
2023-09-02T11:41:26.716Z,102294.47
2023-09-02T11:43:54.587Z,102297.81
2023-09-02T11:46:21.210Z,102292.75
2023-09-02T11:48:47.747Z,102302.19
2023-09-02T11:51:14.317Z,102303.88
2023-09-02T11:53:44.969Z,102304.56
2023-09-02T11:56:13.261Z,102313.63
2023-09-02T11:58:39.755Z,102308.53
2023-09-02T12:01:06.228Z,102313.31
2023-09-02T12:03:33.196Z,102314.06
2023-09-02T12:06:02.284Z,102316.50
2023-09-02T12:08:32.745Z,102330.06
2023-09-02T12:11:05.576Z,102329.22
2023-09-02T12:13:33.209Z,102327.84
2023-09-02T12:15:59.930Z,102335.53
2023-09-02T12:18:26.840Z,102328.13
2023-09-02T12:20:53.841Z,102332.38
2023-09-02T12:23:20.934Z,102335.88
2023-09-02T12:26:23.861Z,102330.03
2023-09-02T12:28:50.462Z,102329.69
2023-09-02T12:31:18.067Z,102336.41
2023-09-02T12:33:44.570Z,102344.09
2023-09-02T12:36:11.051Z,102348.91
2023-09-02T12:38:52.992Z,102356.53
2023-09-02T12:41:19.773Z,102354.66
2023-09-02T12:43:46.205Z,102365.84
2023-09-02T12:46:18.783Z,102357.06
2023-09-02T12:48:47.159Z,102360.19
2023-09-02T12:51:28.537Z,102342.91
2023-09-02T12:53:55.800Z,102337.53
2023-09-02T12:56:22.314Z,102346.38
2023-09-02T12:58:48.817Z,102341.41
2023-09-02T13:03:42.170Z,102338.38
2023-09-02T13:06:08.650Z,102338.84
2023-09-02T13:08:35.138Z,102341.78
2023-09-02T13:11:04.607Z,102326.28
2023-09-02T13:13:31.554Z,102318.41
2023-09-02T13:16:00.401Z,102311.72
2023-09-02T13:18:27.214Z,102322.72
2023-09-02T13:20:54.089Z,102313.69
2023-09-02T13:23:21.984Z,102323.88
2023-09-02T13:25:50.507Z,102317.09
2023-09-02T13:28:17.093Z,102316.22
2023-09-02T13:30:46.546Z,102327.63
2023-09-02T13:33:15.390Z,102323.84
2023-09-02T13:35:41.942Z,102317.09
2023-09-02T13:38:10.010Z,102311.97
2023-09-02T13:40:37.882Z,102317.84
2023-09-02T13:43:07.984Z,102311.00
2023-09-02T13:45:37.498Z,102313.25
2023-09-02T13:48:07.673Z,102320.97
2023-09-02T13:50:35.857Z,102314.66
2023-09-02T13:53:02.483Z,102323.41
2023-09-02T13:55:37.242Z,102328.38
2023-09-02T13:58:03.844Z,102324.69
2023-09-02T14:00:36.971Z,102327.22
2023-09-02T14:03:04.633Z,102330.09
2023-09-02T14:05:31.315Z,102325.41
2023-09-02T14:08:04.068Z,102328.78
2023-09-02T14:10:32.760Z,102329.97
2023-09-02T14:13:20.635Z,102323.63
2023-09-02T14:15:47.217Z,102324.38
2023-09-02T14:18:14.149Z,102323.06
2023-09-02T14:20:41.819Z,102323.22
2023-09-02T14:23:08.303Z,102319.25
2023-09-02T14:25:34.832Z,102314.69
2023-09-02T14:28:01.399Z,102318.50
2023-09-02T14:30:27.936Z,102328.19
2023-09-02T14:32:54.501Z,102315.66
2023-09-02T14:35:21.105Z,102324.19
2023-09-02T14:37:47.645Z,102330.34
2023-09-02T14:40:14.135Z,102327.94
2023-09-02T14:42:40.757Z,102333.78
2023-09-02T14:45:07.689Z,102338.16
2023-09-02T14:47:35.329Z,102347.44
2023-09-02T14:50:01.861Z,102351.31
2023-09-02T14:52:28.593Z,102348.13
2023-09-02T14:54:55.534Z,102351.50
2023-09-02T14:57:23.742Z,102347.16
2023-09-02T14:59:51.607Z,102348.84
2023-09-02T15:02:41.746Z,102346.28
2023-09-02T15:05:11.345Z,102339.38
2023-09-02T15:07:40.757Z,102343.69
2023-09-02T15:10:08.601Z,102338.13
2023-09-02T15:12:36.900Z,102343.09
2023-09-02T15:15:07.814Z,102346.22
2023-09-02T15:17:34.578Z,102350.22
2023-09-02T15:20:01.653Z,102344.03
2023-09-02T15:22:28.555Z,102351.56
2023-09-02T15:24:55.459Z,102357.25
2023-09-02T15:27:23.961Z,102353.03
2023-09-02T15:29:51.510Z,102346.59
2023-09-02T15:32:18.352Z,102355.69
2023-09-02T15:34:49.069Z,102352.72
2023-09-02T15:37:24.634Z,102352.25
2023-09-02T15:39:55.733Z,102353.69
2023-09-02T15:42:23.210Z,102358.09
2023-09-02T15:44:49.835Z,102358.16
2023-09-02T15:47:16.372Z,102359.00
2023-09-02T15:49:42.841Z,102361.19
2023-09-02T15:52:09.326Z,102362.56
2023-09-02T15:54:36.960Z,102369.59
2023-09-02T15:57:05.363Z,102366.06
2023-09-02T15:59:33.565Z,102371.22
2023-09-02T16:02:00.101Z,102372.03
2023-09-02T16:04:26.591Z,102371.56
2023-09-02T16:06:53.053Z,102372.72
2023-09-02T16:09:19.521Z,102375.75
2023-09-02T16:11:46.050Z,102377.44
2023-09-02T16:14:12.557Z,102381.28
2023-09-02T16:16:39.035Z,102379.25
2023-09-02T16:19:05.515Z,102372.72
2023-09-02T16:21:32.020Z,102372.03
2023-09-02T16:23:58.465Z,102377.53
2023-09-02T16:26:25.009Z,102388.38
2023-09-02T16:28:51.459Z,102390.84
2023-09-02T16:31:17.999Z,102392.47
2023-09-02T16:33:44.581Z,102399.94
2023-09-02T16:36:11.126Z,102399.91
2023-09-02T16:38:37.617Z,102398.03
2023-09-02T16:41:04.998Z,102405.81
2023-09-02T16:43:32.153Z,102417.97
2023-09-02T16:45:59.323Z,102410.75
2023-09-02T16:48:25.847Z,102416.41
2023-09-02T16:50:52.501Z,102418.41
2023-09-02T16:53:19.865Z,102417.00
2023-09-02T16:55:48.339Z,102420.66
2023-09-02T16:58:21.930Z,102416.47
2023-09-02T17:00:48.580Z,102420.97
2023-09-02T17:03:20.194Z,102422.13
2023-09-02T17:05:46.992Z,102418.41
2023-09-02T17:08:22.023Z,102419.03
2023-09-02T17:10:48.701Z,102424.97
2023-09-02T17:13:16.072Z,102424.69
2023-09-02T17:15:42.636Z,102426.34
2023-09-02T17:18:10.314Z,102432.75
2023-09-02T17:20:39.008Z,102439.69
2023-09-02T17:23:16.304Z,102445.84
2023-09-02T17:25:44.185Z,102439.06
2023-09-02T17:28:18.446Z,102444.84
2023-09-02T17:30:45.490Z,102443.91
2023-09-02T17:33:12.093Z,102439.03
2023-09-02T17:35:38.694Z,102441.44
2023-09-02T17:38:05.300Z,102453.69
2023-09-02T17:40:32.944Z,102455.41
2023-09-02T17:42:59.468Z,102455.41
2023-09-02T17:45:25.974Z,102460.88
2023-09-02T17:47:52.606Z,102456.72
2023-09-02T17:50:19.164Z,102451.97
2023-09-02T17:52:45.698Z,102457.34
2023-09-02T17:55:12.817Z,102454.84
2023-09-02T17:57:39.361Z,102454.41
2023-09-02T18:00:06.837Z,102456.69
2023-09-02T18:02:33.445Z,102460.19
2023-09-02T18:05:02.374Z,102467.78
2023-09-02T18:07:29.059Z,102465.13
2023-09-02T18:09:55.609Z,102473.66
2023-09-02T18:12:22.426Z,102482.38
2023-09-02T18:14:48.963Z,102476.88
2023-09-02T18:17:16.018Z,102483.88
2023-09-02T18:19:42.949Z,102484.59
2023-09-02T18:22:10.172Z,102485.28
2023-09-02T18:24:37.706Z,102488.50
2023-09-02T18:27:05.374Z,102482.88
2023-09-02T18:29:32.871Z,102496.72
2023-09-02T18:32:00.891Z,102496.28
2023-09-02T18:34:27.418Z,102498.78
2023-09-02T18:36:54.315Z,102506.59
2023-09-02T18:39:24.939Z,102502.81
2023-09-02T18:41:52.287Z,102506.28
2023-09-02T18:44:19.928Z,102503.97
2023-09-02T18:46:47.991Z,102501.59
2023-09-02T18:49:17.093Z,102505.03
2023-09-02T18:51:43.753Z,102506.28
2023-09-02T18:54:11.014Z,102507.38
2023-09-02T18:56:38.082Z,102505.97
2023-09-02T18:59:05.019Z,102512.78
2023-09-02T19:01:32.579Z,102514.69
2023-09-02T19:03:59.372Z,102517.72
2023-09-02T19:06:25.868Z,102517.72
2023-09-02T19:08:52.320Z,102521.47
2023-09-02T19:11:18.941Z,102519.34
2023-09-02T19:13:45.431Z,102528.78
2023-09-02T19:16:12.034Z,102529.44
2023-09-02T19:18:38.546Z,102529.25
2023-09-02T19:21:05.051Z,102547.25
2023-09-02T19:23:31.462Z,102534.59
2023-09-02T19:25:57.899Z,102545.59
2023-09-02T19:28:25.833Z,102545.47
2023-09-02T19:30:55.121Z,102540.44
2023-09-02T19:33:21.763Z,102544.91
2023-09-02T19:35:48.285Z,102548.88
2023-09-02T19:38:15.444Z,102550.84
2023-09-02T19:40:42.144Z,102557.47
2023-09-02T19:43:08.594Z,102560.63
2023-09-02T19:45:35.090Z,102566.19
2023-09-02T19:48:01.568Z,102565.56
2023-09-02T19:50:28.203Z,102575.69
2023-09-02T19:52:54.605Z,102580.66
2023-09-02T19:55:21.049Z,102577.91
2023-09-02T19:57:47.603Z,102577.19
2023-09-02T20:00:15.660Z,102583.81
2023-09-02T20:02:42.117Z,102583.22
2023-09-02T20:05:09.305Z,102582.72
2023-09-02T20:07:35.879Z,102583.91
2023-09-02T20:10:02.447Z,102589.47
2023-09-02T20:12:30.651Z,102593.31
2023-09-02T20:14:57.376Z,102597.41
2023-09-02T20:17:23.848Z,102604.00
2023-09-02T20:19:50.333Z,102609.66
2023-09-02T20:22:17.412Z,102609.88
2023-09-02T20:24:44.024Z,102611.22
2023-09-02T20:27:12.752Z,102626.47
2023-09-02T20:29:39.188Z,102616.97
2023-09-02T20:32:06.389Z,102620.78
2023-09-02T20:34:32.906Z,102619.25
2023-09-02T20:36:59.347Z,102622.09
2023-09-02T20:39:25.887Z,102631.84
2023-09-02T20:41:52.395Z,102632.94
2023-09-02T20:44:18.964Z,102636.75
2023-09-02T20:46:45.444Z,102642.28
2023-09-02T20:49:12.005Z,102642.63
2023-09-02T20:51:38.569Z,102647.19
2023-09-02T20:54:08.876Z,102643.94
2023-09-02T20:56:35.445Z,102650.31
2023-09-02T20:59:02.058Z,102653.41
2023-09-02T21:01:28.729Z,102656.16
2023-09-02T21:03:55.610Z,102651.97
2023-09-02T21:06:22.124Z,102656.50
2023-09-02T21:08:48.582Z,102661.31
2023-09-02T21:11:16.781Z,102663.31
2023-09-02T21:13:47.667Z,102671.38
2023-09-02T21:16:16.279Z,102666.19
2023-09-02T21:18:43.030Z,102658.59
2023-09-02T21:21:09.567Z,102653.63
2023-09-02T21:23:36.196Z,102647.72
2023-09-02T21:26:12.924Z,102643.59
2023-09-02T21:28:40.389Z,102658.03
2023-09-02T21:31:08.341Z,102664.34
2023-09-02T21:33:36.055Z,102663.75
2023-09-02T21:36:03.389Z,102662.28
2023-09-02T21:38:29.968Z,102665.31
2023-09-02T21:41:06.812Z,102671.78
2023-09-02T21:43:34.320Z,102687.97
2023-09-02T21:46:05.491Z,102692.66
2023-09-02T21:48:32.164Z,102693.91
2023-09-02T21:51:03.091Z,102697.81
2023-09-02T21:53:30.079Z,102695.28
2023-09-02T21:55:56.772Z,102699.09
2023-09-02T21:58:24.458Z,102706.41
2023-09-02T22:01:07.261Z,102713.59
2023-09-02T22:03:35.243Z,102715.59
2023-09-02T22:06:09.384Z,102732.41
2023-09-02T22:08:37.272Z,102732.41
2023-09-02T22:11:03.847Z,102740.63
2023-09-02T22:13:30.290Z,102737.25
2023-09-02T22:15:57.396Z,102737.44
2023-09-02T22:18:25.792Z,102752.56
2023-09-02T22:20:53.821Z,102752.78
2023-09-02T22:23:24.807Z,102752.34
2023-09-02T22:25:51.653Z,102757.81
2023-09-02T22:28:18.178Z,102756.25
2023-09-02T22:30:44.859Z,102757.31
2023-09-02T22:33:12.273Z,102747.69
2023-09-02T22:35:39.263Z,102738.91
2023-09-02T22:38:09.188Z,102737.31
2023-09-02T22:40:36.817Z,102732.16
2023-09-02T22:43:03.397Z,102731.63
2023-09-02T22:45:29.957Z,102728.34
2023-09-02T22:47:59.985Z,102732.25
2023-09-02T22:50:26.660Z,102733.19
2023-09-02T22:52:53.258Z,102736.84
2023-09-02T22:55:19.798Z,102736.13
2023-09-02T22:57:47.118Z,102731.78
2023-09-02T23:00:14.882Z,102729.25
2023-09-02T23:02:41.521Z,102724.28
2023-09-02T23:05:08.634Z,102725.53
2023-09-02T23:07:35.086Z,102723.84
2023-09-02T23:10:01.641Z,102724.78
2023-09-02T23:12:28.118Z,102731.09
2023-09-02T23:14:57.419Z,102738.16
2023-09-02T23:17:23.946Z,102743.53
2023-09-02T23:19:56.133Z,102734.97
2023-09-02T23:22:23.522Z,102738.97
2023-09-02T23:24:49.963Z,102747.16
2023-09-02T23:27:16.408Z,102742.16
2023-09-02T23:29:42.895Z,102737.09
2023-09-02T23:32:11.248Z,102734.47
2023-09-02T23:34:38.168Z,102732.88
2023-09-02T23:37:04.919Z,102732.97
2023-09-02T23:39:31.489Z,102738.44
2023-09-02T23:41:57.987Z,102749.28
2023-09-02T23:44:24.413Z,102750.53
2023-09-02T23:46:50.903Z,102754.19
2023-09-02T23:49:17.270Z,102763.16
2023-09-02T23:51:43.838Z,102755.44
2023-09-02T23:54:10.368Z,102762.59
2023-09-02T23:56:36.902Z,102754.97
2023-09-02T23:59:03.357Z,102757.06
